Time;durP1;ratioP1;P1;durP2;ratioP2;P2;SDS_P1;SDS_P2;PMS_P1;PMS_P2;Temp;Humidity;BMP_temperature;BMP_pressure;BME280_temperature;BME280_humidity;BME280_pressure;Samples;Min_cycle;Max_cycle;Signal;HPM_P1;HPM_P2
2022/06/09 00:00:18;;;;;;;6.10;2.73;;;16.20;99.90;;;;;;5034346;28;20284;-82
2022/06/09 00:02:48;;;;;;;3.10;2.80;;;16.20;99.90;;;;;;5033055;28;20308;-81
2022/06/09 00:05:15;;;;;;;6.70;2.83;;;16.10;99.90;;;;;;5026845;28;20227;-81
2022/06/09 00:07:44;;;;;;;2.77;2.47;;;16.10;99.90;;;;;;5028461;28;20266;-81
2022/06/09 00:10:19;;;;;;;5.13;3.20;;;16.10;99.90;;;;;;5032980;28;20586;-81
2022/06/09 00:12:46;;;;;;;6.60;3.07;;;16.10;99.90;;;;;;5028356;28;20232;-82
2022/06/09 00:15:15;;;;;;;7.60;3.20;;;16.10;99.90;;;;;;5032541;28;20246;-82
2022/06/09 00:17:45;;;;;;;3.10;2.73;;;16.00;99.90;;;;;;5031514;28;20241;-81
2022/06/09 00:20:17;;;;;;;4.27;2.67;;;16.00;99.90;;;;;;5024930;28;20221;-82
2022/06/09 00:22:44;;;;;;;4.63;2.90;;;16.00;99.90;;;;;;5033315;28;20355;-82
2022/06/09 00:25:12;;;;;;;4.10;2.90;;;16.00;99.90;;;;;;5047276;28;20296;-81
2022/06/09 00:27:40;;;;;;;4.33;3.10;;;15.90;99.90;;;;;;5029670;28;20244;-81
2022/06/09 00:30:10;;;;;;;3.40;3.00;;;15.90;99.90;;;;;;5032064;28;20236;-80
2022/06/09 00:32:36;;;;;;;4.37;3.20;;;15.80;99.90;;;;;;5032828;28;20372;-80
2022/06/09 00:35:03;;;;;;;5.47;3.30;;;15.80;99.90;;;;;;5024252;28;20220;-80
2022/06/09 00:37:30;;;;;;;4.20;2.90;;;15.80;99.90;;;;;;5024039;28;20663;-80
2022/06/09 00:39:57;;;;;;;3.97;3.03;;;15.80;99.90;;;;;;5026024;28;20232;-82
2022/06/09 00:42:25;;;;;;;4.30;2.90;;;15.70;99.90;;;;;;5027785;28;20227;-83
2022/06/09 00:44:52;;;;;;;5.30;2.97;;;15.70;99.90;;;;;;5025880;28;20292;-82
2022/06/09 00:47:24;;;;;;;4.63;2.70;;;15.70;99.90;;;;;;5036360;28;20697;-83
2022/06/09 00:49:57;;;;;;;4.43;2.63;;;15.70;99.90;;;;;;5035434;28;20715;-83
2022/06/09 00:52:26;;;;;;;3.57;2.50;;;15.70;99.90;;;;;;5029237;28;20267;-82
2022/06/09 00:54:58;;;;;;;4.43;3.10;;;15.70;99.90;;;;;;5024667;28;20305;-83
2022/06/09 00:57:34;;;;;;;4.83;2.90;;;15.70;99.90;;;;;;5018866;28;20231;-83
2022/06/09 01:00:06;;;;;;;4.50;3.00;;;15.60;99.90;;;;;;5027116;28;20367;-82
2022/06/09 01:02:34;;;;;;;3.07;2.87;;;15.70;99.90;;;;;;5027150;28;20239;-82
2022/06/09 01:05:05;;;;;;;4.60;2.90;;;15.60;99.90;;;;;;5030208;28;20242;-82
2022/06/09 01:07:36;;;;;;;4.73;3.23;;;15.60;99.90;;;;;;5028373;28;20235;-85
2022/06/09 01:10:04;;;;;;;3.33;2.80;;;15.60;99.90;;;;;;5031033;28;20243;-83
2022/06/09 01:12:34;;;;;;;5.70;3.00;;;15.60;99.90;;;;;;5032740;28;20307;-82
2022/06/09 01:15:04;;;;;;;5.33;3.20;;;15.60;99.90;;;;;;5030994;28;20228;-82
2022/06/09 01:17:44;;;;;;;3.83;2.80;;;15.50;99.90;;;;;;5032953;28;20228;-83
2022/06/09 01:20:23;;;;;;;5.77;3.33;;;15.50;99.90;;;;;;5026512;28;20231;-82
2022/06/09 01:23:25;;;;;;;4.80;2.93;;;15.50;99.90;;;;;;5033005;28;20235;-82
2022/06/09 01:26:14;;;;;;;4.27;2.70;;;15.50;99.90;;;;;;5031028;28;21130;-82
2022/06/09 01:29:18;;;;;;;4.73;3.00;;;15.50;99.90;;;;;;5032073;28;20617;-83
2022/06/09 01:31:50;;;;;;;3.90;2.90;;;15.50;99.90;;;;;;5031045;28;20607;-82
2022/06/09 01:34:22;;;;;;;5.43;3.10;;;15.50;99.90;;;;;;5031082;28;20227;-82
2022/06/09 01:36:54;;;;;;;5.03;2.80;;;15.50;99.90;;;;;;5031251;28;20266;-82
2022/06/09 01:39:29;;;;;;;4.60;3.33;;;15.40;99.90;;;;;;5036430;28;20226;-82
2022/06/09 01:41:55;;;;;;;5.00;3.43;;;15.50;99.90;;;;;;5040068;28;20224;-84
2022/06/09 01:44:22;;;;;;;4.43;3.40;;;15.40;99.90;;;;;;5031270;28;20299;-81
2022/06/09 01:46:52;;;;;;;6.73;4.20;;;15.40;99.90;;;;;;5032115;28;20685;-82
2022/06/09 01:49:23;;;;;;;7.00;4.47;;;15.40;99.90;;;;;;5037537;28;20247;-82
2022/06/09 01:51:51;;;;;;;8.53;5.00;;;15.40;99.90;;;;;;5033494;28;20243;-82
2022/06/09 01:54:24;;;;;;;5.90;4.57;;;15.40;99.90;;;;;;5041901;28;20220;-83
2022/06/09 01:56:55;;;;;;;7.83;5.07;;;15.40;99.90;;;;;;5027849;28;20815;-83
2022/06/09 01:59:27;;;;;;;6.93;4.83;;;15.40;99.90;;;;;;5026368;28;20227;-83
2022/06/09 02:01:58;;;;;;;7.80;5.13;;;15.40;99.90;;;;;;5032384;28;20755;-83
2022/06/09 02:04:34;;;;;;;7.33;5.20;;;15.30;99.90;;;;;;5032236;28;20305;-83
2022/06/09 02:07:03;;;;;;;6.20;5.07;;;15.30;99.90;;;;;;5029238;28;20689;-83
2022/06/09 02:09:35;;;;;;;7.47;5.13;;;15.30;99.90;;;;;;5026230;28;20224;-84
2022/06/09 02:12:09;;;;;;;6.10;5.20;;;15.30;99.90;;;;;;5031849;28;20281;-83
2022/06/09 02:14:37;;;;;;;5.93;4.90;;;15.40;99.90;;;;;;5033352;28;20256;-82
2022/06/09 02:17:08;;;;;;;6.57;5.23;;;15.30;99.90;;;;;;5029176;28;20314;-83
2022/06/09 02:19:37;;;;;;;7.13;4.97;;;15.30;99.90;;;;;;5029735;28;20243;-82
2022/06/09 02:22:09;;;;;;;5.83;4.43;;;15.30;99.90;;;;;;5033603;28;20543;-81
2022/06/09 02:24:36;;;;;;;6.73;4.70;;;15.30;99.90;;;;;;5029609;28;20238;-82
2022/06/09 02:27:05;;;;;;;6.47;4.83;;;15.20;99.90;;;;;;5034952;28;20235;-82
2022/06/09 02:29:33;;;;;;;5.10;4.27;;;15.20;99.90;;;;;;5033923;28;20227;-81
2022/06/09 02:32:00;;;;;;;5.27;4.40;;;15.20;99.90;;;;;;5031809;28;20768;-82
2022/06/09 02:34:31;;;;;;;6.27;4.30;;;15.20;99.90;;;;;;5021817;28;20283;-82
2022/06/09 02:36:58;;;;;;;4.93;4.43;;;15.20;99.90;;;;;;5032509;28;20973;-82
2022/06/09 02:39:25;;;;;;;6.97;4.67;;;15.20;99.90;;;;;;5033680;28;20228;-81
2022/06/09 02:41:51;;;;;;;5.30;4.80;;;15.20;99.90;;;;;;5032421;28;20224;-81
2022/06/09 02:44:18;;;;;;;5.67;4.87;;;15.10;99.90;;;;;;5028363;28;20251;-82
2022/06/09 02:46:45;;;;;;;6.03;5.00;;;15.10;99.90;;;;;;5025142;28;20227;-82
2022/06/09 02:49:12;;;;;;;5.90;4.47;;;15.00;99.90;;;;;;5031510;28;20230;-82
2022/06/09 02:51:41;;;;;;;6.87;4.90;;;15.00;99.90;;;;;;5032829;28;20233;-84
2022/06/09 02:54:12;;;;;;;5.67;4.70;;;15.00;99.90;;;;;;5027419;28;20260;-82
2022/06/09 02:56:39;;;;;;;7.43;5.00;;;14.90;99.90;;;;;;5028307;28;20724;-83
2022/06/09 02:59:06;;;;;;;5.63;4.13;;;14.90;99.90;;;;;;5024896;28;20228;-83
2022/06/09 03:01:32;;;;;;;4.17;3.77;;;14.90;99.90;;;;;;5033502;28;20295;-82
2022/06/09 03:04:04;;;;;;;6.50;3.83;;;14.90;99.90;;;;;;5027950;28;20233;-82
2022/06/09 03:06:31;;;;;;;4.93;3.83;;;14.90;99.90;;;;;;5038517;28;20291;-82
2022/06/09 03:09:02;;;;;;;4.30;3.40;;;14.90;99.90;;;;;;5032179;28;20242;-82
2022/06/09 03:11:29;;;;;;;4.07;3.40;;;14.90;99.90;;;;;;5020949;28;20374;-82
2022/06/09 03:13:56;;;;;;;4.20;3.80;;;14.90;99.90;;;;;;5033444;28;20220;-82
2022/06/09 03:16:23;;;;;;;5.70;4.03;;;14.90;99.90;;;;;;5038059;28;20239;-82
2022/06/09 03:18:50;;;;;;;4.17;3.47;;;14.80;99.90;;;;;;5036356;28;20230;-82
2022/06/09 03:21:16;;;;;;;4.13;3.73;;;14.80;99.90;;;;;;5036444;28;20309;-81
2022/06/09 03:23:43;;;;;;;4.00;3.60;;;14.80;99.90;;;;;;5030381;28;20265;-81
2022/06/09 03:26:15;;;;;;;5.03;3.60;;;14.80;99.90;;;;;;5019589;28;20631;-82
2022/06/09 03:28:45;;;;;;;6.23;3.90;;;14.70;99.90;;;;;;5032341;28;20223;-81
2022/06/09 03:31:11;;;;;;;4.47;3.43;;;14.70;99.90;;;;;;5021935;28;20326;-81
2022/06/09 03:33:40;;;;;;;6.37;3.37;;;14.70;99.90;;;;;;5035884;28;20230;-81
2022/06/09 03:36:08;;;;;;;4.33;3.40;;;14.70;99.90;;;;;;5036417;28;20228;-81
2022/06/09 03:38:35;;;;;;;3.90;3.43;;;14.60;99.90;;;;;;5033668;28;20232;-81
2022/06/09 03:41:02;;;;;;;5.63;3.47;;;14.60;99.90;;;;;;5032147;28;20232;-82
2022/06/09 03:43:30;;;;;;;5.40;3.33;;;14.60;99.90;;;;;;5035324;28;20293;-82
2022/06/09 03:45:57;;;;;;;4.53;3.23;;;14.60;99.90;;;;;;5026642;28;20235;-82
2022/06/09 03:48:24;;;;;;;4.83;2.90;;;14.50;99.90;;;;;;5020271;28;20254;-83
2022/06/09 03:50:50;;;;;;;3.20;2.80;;;14.50;99.90;;;;;;5028536;28;20222;-82
2022/06/09 03:53:17;;;;;;;3.40;3.10;;;14.50;99.90;;;;;;5033006;28;20235;-82
2022/06/09 03:55:46;;;;;;;3.77;2.97;;;14.40;99.90;;;;;;5034024;28;20230;-82
2022/06/09 03:58:13;;;;;;;4.60;3.63;;;14.40;99.90;;;;;;5032443;28;20266;-83
2022/06/09 04:00:41;;;;;;;6.13;4.00;;;14.50;99.90;;;;;;5034070;28;20234;-81
2022/06/09 04:03:08;;;;;;;3.77;3.30;;;14.40;99.90;;;;;;5033685;28;21084;-83
2022/06/09 04:05:37;;;;;;;5.53;3.17;;;14.40;99.90;;;;;;5035435;28;20253;-81
2022/06/09 04:08:08;;;;;;;4.10;3.63;;;14.40;99.90;;;;;;5025587;28;20323;-82
2022/06/09 04:10:35;;;;;;;4.87;3.97;;;14.40;99.90;;;;;;5034544;28;20238;-82
2022/06/09 04:13:02;;;;;;;4.73;4.10;;;14.40;99.90;;;;;;5031695;28;20258;-82
2022/06/09 04:15:32;;;;;;;6.57;4.00;;;14.50;99.90;;;;;;5045367;28;20230;-82
2022/06/09 04:18:05;;;;;;;5.87;4.43;;;14.50;99.90;;;;;;5029612;28;20365;-82
2022/06/09 04:20:32;;;;;;;8.80;6.10;;;14.50;99.90;;;;;;5030891;28;20229;-82
2022/06/09 04:23:00;;;;;;;7.43;5.60;;;14.50;99.90;;;;;;5031911;28;20223;-84
2022/06/09 04:25:32;;;;;;;7.13;5.70;;;14.50;99.90;;;;;;5033710;28;20279;-83
2022/06/09 04:28:00;;;;;;;5.73;5.00;;;14.50;99.90;;;;;;5029738;28;20286;-83
2022/06/09 04:30:27;;;;;;;6.13;5.53;;;14.50;99.90;;;;;;5034354;28;20290;-84
2022/06/09 04:32:55;;;;;;;6.50;5.80;;;14.50;99.90;;;;;;5028936;28;20327;-82
2022/06/09 04:35:24;;;;;;;7.07;6.27;;;14.50;99.90;;;;;;5032163;28;20231;-81
2022/06/09 04:38:03;;;;;;;8.53;6.53;;;14.60;99.90;;;;;;5035115;28;20275;-82
2022/06/09 04:40:37;;;;;;;9.57;6.60;;;14.60;99.90;;;;;;5031917;28;20259;-80
2022/06/09 04:43:06;;;;;;;9.60;6.90;;;14.60;99.90;;;;;;5024339;28;20239;-80
2022/06/09 04:45:33;;;;;;;8.17;6.77;;;14.50;99.90;;;;;;5035154;28;20232;-80
2022/06/09 04:48:00;;;;;;;10.63;6.70;;;14.50;99.90;;;;;;5033150;28;20326;-80
2022/06/09 04:50:29;;;;;;;8.47;7.07;;;14.50;99.90;;;;;;5028487;28;20229;-80
2022/06/09 04:52:57;;;;;;;9.43;7.20;;;14.40;99.90;;;;;;5028535;28;22095;-80
2022/06/09 04:55:24;;;;;;;10.77;7.57;;;14.40;99.90;;;;;;5026934;28;20846;-80
2022/06/09 04:57:52;;;;;;;8.57;7.67;;;14.40;99.90;;;;;;5019680;28;20263;-80
2022/06/09 05:00:22;;;;;;;9.93;8.20;;;14.30;99.90;;;;;;5029678;28;20282;-80
2022/06/09 05:02:50;;;;;;;9.60;8.07;;;14.30;99.90;;;;;;5031043;28;20228;-81
2022/06/09 05:05:20;;;;;;;10.07;9.00;;;14.30;99.90;;;;;;5030181;28;20314;-80
2022/06/09 05:07:51;;;;;;;10.93;9.07;;;14.30;99.90;;;;;;5028782;28;20231;-81
2022/06/09 05:10:18;;;;;;;11.73;9.40;;;14.30;99.90;;;;;;5028714;28;20692;-81
2022/06/09 05:12:47;;;;;;;14.43;9.47;;;14.30;99.90;;;;;;5029203;28;20820;-82
2022/06/09 05:15:15;;;;;;;13.30;10.10;;;14.40;99.90;;;;;;5028321;28;20557;-83
2022/06/09 05:17:42;;;;;;;15.13;10.93;;;14.30;99.90;;;;;;5027625;28;20274;-83
2022/06/09 05:20:11;;;;;;;13.10;10.43;;;14.30;99.90;;;;;;5025353;28;20217;-83
2022/06/09 05:22:38;;;;;;;14.17;11.77;;;14.30;99.90;;;;;;5028206;28;20224;-83
2022/06/09 05:25:08;;;;;;;14.00;11.20;;;14.30;99.90;;;;;;5027475;28;20227;-83
2022/06/09 05:27:35;;;;;;;14.43;11.83;;;14.30;99.90;;;;;;5026073;28;20233;-82
2022/06/09 05:30:02;;;;;;;16.57;13.07;;;14.30;99.90;;;;;;5023232;28;20229;-83
2022/06/09 05:32:32;;;;;;;18.57;13.57;;;14.30;99.90;;;;;;5031566;28;20749;-82
2022/06/09 05:35:01;;;;;;;19.27;13.50;;;14.40;99.90;;;;;;5024526;28;20231;-84
2022/06/09 05:44:50;;;;;;;17.97;13.13;;;14.40;99.90;;;;;;5029704;28;20258;-83
2022/06/09 05:45:45;;;;;;;19.17;13.30;;;14.60;99.90;;;;;;5026912;28;20226;-84
2022/06/09 05:48:12;;;;;;;18.23;13.43;;;14.60;99.90;;;;;;5025397;28;20848;-84
2022/06/09 05:50:42;;;;;;;17.67;13.93;;;14.70;99.90;;;;;;5030734;28;20233;-85
2022/06/09 05:53:09;;;;;;;21.77;14.47;;;14.80;99.90;;;;;;5028468;28;20231;-85
2022/06/09 05:55:37;;;;;;;22.37;14.90;;;14.90;99.90;;;;;;5029891;28;20223;-82
2022/06/09 05:58:04;;;;;;;21.23;14.13;;;14.90;99.90;;;;;;5030548;28;20318;-81
2022/06/09 06:00:31;;;;;;;20.63;13.80;;;14.90;99.90;;;;;;5028392;28;20351;-82
2022/06/09 06:02:58;;;;;;;19.67;14.83;;;14.90;99.90;;;;;;5028951;28;20223;-83
2022/06/09 06:08:09;;;;;;;19.40;14.67;;;15.10;99.90;;;;;;5028972;28;20314;-81
2022/06/09 06:10:37;;;;;;;17.43;14.83;;;15.20;99.90;;;;;;5030425;28;20231;-83
2022/06/09 06:13:04;;;;;;;18.30;14.67;;;15.30;99.90;;;;;;5024590;28;21071;-84
2022/06/09 06:15:31;;;;;;;16.03;13.30;;;15.50;99.90;;;;;;5026521;28;20234;-83
2022/06/09 06:18:02;;;;;;;17.20;13.57;;;15.70;99.90;;;;;;5023967;28;20227;-84
2022/06/09 06:20:29;;;;;;;17.83;13.83;;;15.80;99.90;;;;;;5037725;28;20808;-81
2022/06/09 06:22:56;;;;;;;12.40;11.07;;;16.10;99.90;;;;;;5027536;28;20224;-80
2022/06/09 06:25:23;;;;;;;13.40;8.90;;;16.20;99.90;;;;;;5026525;28;20603;-80
2022/06/09 06:27:52;;;;;;;12.17;9.30;;;16.30;99.90;;;;;;5027131;28;20327;-81
2022/06/09 06:30:19;;;;;;;11.83;9.37;;;16.30;99.90;;;;;;5026446;28;20231;-80
2022/06/09 06:32:46;;;;;;;10.37;8.37;;;16.40;99.90;;;;;;5032598;28;20227;-81
2022/06/09 06:35:13;;;;;;;9.57;7.90;;;16.50;99.90;;;;;;5029914;28;20341;-81
2022/06/09 06:37:40;;;;;;;10.20;8.57;;;16.50;99.90;;;;;;5023305;28;20241;-81
2022/06/09 06:40:12;;;;;;;11.27;8.53;;;16.60;99.90;;;;;;5029200;28;20693;-81
2022/06/09 06:42:39;;;;;;;12.67;8.63;;;16.60;99.90;;;;;;5032476;28;20225;-81
2022/06/09 06:45:10;;;;;;;12.47;9.00;;;16.70;99.90;;;;;;5026006;28;20230;-81
2022/06/09 06:47:38;;;;;;;8.83;7.07;;;16.70;99.90;;;;;;5028328;28;20228;-81
2022/06/09 06:50:06;;;;;;;7.63;4.87;;;16.70;99.90;;;;;;5027290;28;20224;-81
2022/06/09 06:52:33;;;;;;;6.27;4.90;;;16.70;99.90;;;;;;5028441;28;20227;-81
2022/06/09 06:54:59;;;;;;;7.53;4.80;;;16.70;99.90;;;;;;5028129;28;20231;-81
2022/06/09 06:57:26;;;;;;;5.37;4.17;;;16.60;99.90;;;;;;5035837;28;20693;-81
2022/06/09 06:59:53;;;;;;;5.03;4.00;;;16.50;99.90;;;;;;5029378;28;20244;-82
2022/06/09 07:02:21;;;;;;;4.57;3.80;;;16.50;99.90;;;;;;5026813;28;20266;-82
2022/06/09 07:04:48;;;;;;;3.90;3.33;;;16.50;99.90;;;;;;5028381;28;20641;-81
2022/06/09 07:07:15;;;;;;;4.97;3.43;;;16.50;99.90;;;;;;5026956;28;20236;-81
2022/06/09 07:09:41;;;;;;;3.30;2.97;;;16.50;99.90;;;;;;5025928;28;20209;-82
2022/06/09 07:12:08;;;;;;;4.07;2.93;;;16.50;99.90;;;;;;5026927;28;20219;-82
2022/06/09 07:14:35;;;;;;;2.83;2.60;;;16.60;99.90;;;;;;5025490;28;20228;-82
2022/06/09 07:17:02;;;;;;;3.47;2.60;;;16.60;99.90;;;;;;5029165;28;20247;-82
2022/06/09 07:19:30;;;;;;;3.03;2.53;;;16.60;99.90;;;;;;5025449;28;20727;-82
2022/06/09 07:21:58;;;;;;;3.73;2.67;;;16.60;99.90;;;;;;5026277;28;20259;-82
2022/06/09 07:24:25;;;;;;;2.67;2.30;;;16.60;99.90;;;;;;5031163;28;20277;-82
2022/06/09 07:26:52;;;;;;;2.90;2.70;;;16.60;99.90;;;;;;5028235;28;20255;-82
2022/06/09 07:29:19;;;;;;;2.70;2.50;;;16.70;99.90;;;;;;5025139;28;20232;-82
2022/06/09 07:31:46;;;;;;;3.70;2.73;;;16.70;99.90;;;;;;5026828;28;20227;-82
2022/06/09 07:34:13;;;;;;;4.33;3.00;;;16.80;99.90;;;;;;5023930;28;20282;-82
2022/06/09 07:36:42;;;;;;;3.43;3.03;;;16.80;99.90;;;;;;5024388;28;20229;-82
2022/06/09 07:39:09;;;;;;;4.40;3.60;;;16.90;99.90;;;;;;5025055;28;20290;-83
2022/06/09 07:41:35;;;;;;;4.13;3.60;;;17.10;99.90;;;;;;5029950;28;20570;-83
2022/06/09 07:44:07;;;;;;;5.67;3.60;;;17.20;99.90;;;;;;5022969;28;20307;-83
2022/06/09 07:46:34;;;;;;;3.90;3.50;;;17.30;99.90;;;;;;5024244;28;20688;-83
2022/06/09 07:49:01;;;;;;;4.77;3.50;;;17.50;99.90;;;;;;5023285;28;20816;-83
2022/06/09 07:51:29;;;;;;;4.00;3.13;;;17.60;99.90;;;;;;5017034;28;20308;-83
2022/06/09 07:53:58;;;;;;;3.63;3.33;;;17.70;99.90;;;;;;5027330;28;20220;-83
2022/06/09 07:56:25;;;;;;;4.53;3.93;;;17.90;99.90;;;;;;5026103;28;20260;-84
2022/06/09 07:58:52;;;;;;;4.70;4.07;;;18.00;99.90;;;;;;5027089;28;20230;-83
2022/06/09 08:01:20;;;;;;;4.93;4.07;;;18.00;99.90;;;;;;5031775;28;20308;-84
2022/06/09 08:03:47;;;;;;;4.30;3.55;;;18.10;99.90;;;;;;5037939;28;20804;-84
2022/06/09 08:06:14;;;;;;;5.43;4.03;;;18.10;99.90;;;;;;5025681;28;20236;-82
2022/06/09 08:08:41;;;;;;;6.05;4.05;;;18.10;99.90;;;;;;5026254;28;20247;-83
2022/06/09 08:11:10;;;;;;;4.93;3.75;;;18.10;99.90;;;;;;5025734;28;20217;-83
2022/06/09 08:13:37;;;;;;;4.73;3.70;;;18.10;99.90;;;;;;5026232;28;20233;-83
2022/06/09 08:16:05;;;;;;;5.30;4.77;;;18.00;99.90;;;;;;5027425;28;20677;-83
2022/06/09 08:18:32;;;;;;;6.20;4.60;;;18.00;99.90;;;;;;5025848;28;20236;-83
2022/06/09 08:20:59;;;;;;;6.63;4.73;;;17.90;99.90;;;;;;5026055;28;20330;-84
2022/06/09 08:23:28;;;;;;;8.97;5.70;;;17.80;99.90;;;;;;5025442;28;20922;-83
2022/06/09 08:25:58;;;;;;;8.53;5.70;;;17.70;99.90;;;;;;5025948;28;20232;-83
2022/06/09 08:28:27;;;;;;;8.63;5.90;;;17.60;99.90;;;;;;5025910;28;20221;-83
2022/06/09 08:30:56;;;;;;;10.03;6.70;;;17.60;99.90;;;;;;5026968;28;20328;-83
2022/06/09 08:33:25;;;;;;;9.47;7.00;;;17.50;99.90;;;;;;5025960;28;20327;-84
2022/06/09 08:35:52;;;;;;;10.43;6.80;;;17.50;99.90;;;;;;5027239;28;20705;-84
2022/06/09 08:38:20;;;;;;;12.03;7.23;;;17.60;99.90;;;;;;5026839;28;20825;-84
2022/06/09 08:40:54;;;;;;;9.03;6.50;;;17.60;99.90;;;;;;5025507;28;20221;-84
2022/06/09 08:43:35;;;;;;;7.47;6.63;;;17.60;99.90;;;;;;5025310;28;20239;-84
2022/06/09 08:46:08;;;;;;;8.20;6.67;;;17.70;99.90;;;;;;5019839;28;20654;-84
2022/06/09 08:48:40;;;;;;;8.57;6.90;;;17.90;99.90;;;;;;5030994;28;20225;-84
2022/06/09 08:51:12;;;;;;;10.23;6.80;;;18.10;99.90;;;;;;5026662;28;20231;-83
2022/06/09 08:53:42;;;;;;;9.20;6.67;;;18.30;99.90;;;;;;5027166;28;20223;-83
2022/06/09 08:56:17;;;;;;;10.17;6.70;;;18.40;99.90;;;;;;5025481;28;20224;-83
2022/06/09 08:58:48;;;;;;;9.07;6.57;;;18.50;99.90;;;;;;5027737;28;20258;-82
2022/06/09 09:01:24;;;;;;;7.50;6.40;;;18.60;99.90;;;;;;5024853;28;20311;-84
2022/06/09 09:03:55;;;;;;;9.35;6.78;;;18.70;99.90;;;;;;5026243;28;20251;-84
2022/06/09 09:06:27;;;;;;;9.18;6.22;;;18.80;99.90;;;;;;5025270;28;20233;-84
2022/06/09 09:09:01;;;;;;;9.50;6.32;;;18.90;99.90;;;;;;5006229;28;20317;-83
2022/06/09 09:11:41;;;;;;;8.82;6.38;;;19.00;99.90;;;;;;5005298;28;20253;-84
2022/06/09 09:14:14;;;;;;;9.32;6.43;;;19.10;99.90;;;;;;5020306;28;20228;-83
2022/06/09 09:16:48;;;;;;;11.85;7.40;;;19.20;99.90;;;;;;5025095;28;20332;-84
2022/06/09 09:19:25;;;;;;;9.52;6.40;;;19.40;99.90;;;;;;5026321;28;20315;-84
2022/06/09 09:22:03;;;;;;;9.23;6.70;;;19.50;99.70;;;;;;5024769;28;20328;-83
2022/06/09 09:24:39;;;;;;;9.98;6.03;;;19.60;99.40;;;;;;5026042;28;20224;-84
2022/06/09 09:27:19;;;;;;;8.88;6.18;;;19.70;99.20;;;;;;5024937;28;20224;-82
2022/06/09 09:29:54;;;;;;;9.82;5.68;;;19.90;99.10;;;;;;5024476;28;20244;-84
2022/06/09 09:32:24;;;;;;;6.78;4.93;;;20.00;99.10;;;;;;5018447;28;20875;-84
2022/06/09 09:34:53;;;;;;;7.80;4.90;;;20.20;98.80;;;;;;5023057;28;20239;-84
2022/06/09 09:37:25;;;;;;;6.28;4.25;;;20.40;98.40;;;;;;5024358;28;20229;-84
2022/06/09 09:39:57;;;;;;;6.22;4.57;;;20.40;98.20;;;;;;5024579;28;20227;-84
2022/06/09 09:42:27;;;;;;;5.43;4.20;;;20.50;97.50;;;;;;5026198;28;20264;-83
2022/06/09 09:45:14;;;;;;;5.28;4.10;;;20.50;97.80;;;;;;5026152;28;20251;-85
2022/06/09 09:47:45;;;;;;;7.25;4.65;;;20.60;97.70;;;;;;5018986;28;20240;-84
2022/06/09 09:50:22;;;;;;;6.72;4.30;;;20.80;97.70;;;;;;5026441;28;20255;-83
2022/06/09 09:52:56;;;;;;;5.38;4.30;;;21.10;97.60;;;;;;5025708;28;20304;-84
2022/06/09 09:55:29;;;;;;;5.78;4.13;;;21.40;97.00;;;;;;5025723;28;20232;-84
2022/06/09 09:58:16;;;;;;;6.72;4.45;;;21.70;96.80;;;;;;5025453;28;20298;-84
2022/06/09 10:00:46;;;;;;;6.13;4.50;;;22.00;95.80;;;;;;5025217;28;20228;-83
2022/06/09 10:09:12;;;;;;;4.35;3.95;;;22.40;94.70;;;;;;5043702;28;20622;-84
2022/06/09 10:11:54;;;;;;;5.78;3.80;;;22.40;94.70;;;;;;5027898;28;20671;-84
2022/06/09 10:14:42;;;;;;;6.85;4.03;;;22.40;94.30;;;;;;5024700;28;20220;-83
2022/06/09 10:17:29;;;;;;;6.38;4.15;;;22.40;93.90;;;;;;5025325;28;20340;-84
2022/06/09 10:20:04;;;;;;;3.85;3.45;;;22.40;93.70;;;;;;5023636;28;20252;-84
2022/06/09 10:22:34;;;;;;;3.95;3.47;;;22.40;94.30;;;;;;5027905;28;20303;-84
2022/06/09 10:25:05;;;;;;;4.47;3.70;;;22.40;94.40;;;;;;5031297;28;20226;-84
2022/06/09 10:27:37;;;;;;;6.43;4.60;;;22.40;94.10;;;;;;5025492;28;20646;-84
2022/06/09 10:30:11;;;;;;;6.18;4.63;;;22.40;94.00;;;;;;5017953;28;20308;-83
2022/06/09 10:32:47;;;;;;;5.38;3.95;;;22.40;94.00;;;;;;5033349;28;20316;-83
2022/06/09 10:35:19;;;;;;;5.55;4.25;;;22.40;93.60;;;;;;5043219;28;20216;-84
2022/06/09 10:37:51;;;;;;;4.82;3.97;;;22.50;94.20;;;;;;5033399;28;20232;-84
2022/06/09 10:40:22;;;;;;;5.68;3.65;;;22.60;93.70;;;;;;5023656;28;20224;-84
2022/06/09 10:42:54;;;;;;;4.80;4.00;;;22.80;93.70;;;;;;5013082;28;20300;-83
2022/06/09 10:45:27;;;;;;;3.90;3.42;;;22.80;92.80;;;;;;5018462;28;20441;-84
2022/06/09 10:56:32;;;;;;;4.97;3.80;;;23.10;92.20;;;;;;5024800;28;20295;-83
2022/06/09 10:59:05;;;;;;;5.93;3.92;;;23.10;92.10;;;;;;5024827;28;20224;-84
2022/06/09 11:01:34;;;;;;;4.82;3.60;;;23.10;92.50;;;;;;5018972;28;20236;-84
2022/06/09 11:04:06;;;;;;;4.10;3.28;;;23.20;92.70;;;;;;5023088;28;20227;-84
2022/06/09 11:06:54;;;;;;;4.30;3.40;;;23.20;92.40;;;;;;5015572;28;20333;-84
2022/06/09 11:09:28;;;;;;;4.80;3.85;;;23.30;92.30;;;;;;5024585;28;20252;-83
2022/06/09 11:12:05;;;;;;;4.60;4.20;;;23.50;91.90;;;;;;5025056;28;20224;-84
2022/06/09 11:14:53;;;;;;;5.28;3.90;;;23.80;91.40;;;;;;5016178;28;20236;-83
2022/06/09 11:17:30;;;;;;;4.38;3.50;;;24.00;90.70;;;;;;5022865;28;20243;-84
2022/06/09 11:20:12;;;;;;;3.70;2.97;;;24.10;90.70;;;;;;5023040;28;20227;-84
2022/06/09 11:22:49;;;;;;;3.85;3.08;;;24.10;90.30;;;;;;5022591;28;20282;-83
2022/06/09 11:25:38;;;;;;;3.60;2.80;;;24.10;90.10;;;;;;5022328;28;20232;-83
2022/06/09 11:28:19;;;;;;;3.50;3.05;;;24.10;90.20;;;;;;5008544;28;20239;-84
2022/06/09 11:31:09;;;;;;;3.85;3.05;;;24.10;90.60;;;;;;5019300;28;20315;-84
2022/06/09 11:33:51;;;;;;;3.60;3.28;;;24.30;90.80;;;;;;5028253;28;20266;-84
2022/06/09 11:36:24;;;;;;;5.25;3.28;;;24.50;90.40;;;;;;5026125;28;20237;-83
2022/06/09 11:38:58;;;;;;;3.53;3.03;;;24.70;89.30;;;;;;5026685;28;20348;-84
2022/06/09 11:41:34;;;;;;;3.40;3.10;;;24.70;88.20;;;;;;5027536;28;20311;-82
2022/06/09 11:44:10;;;;;;;3.13;2.60;;;24.70;86.60;;;;;;5026672;28;20220;-84
2022/06/09 11:46:40;;;;;;;2.40;2.08;;;24.60;86.90;;;;;;5026264;28;20228;-84
2022/06/09 11:49:11;;;;;;;4.60;2.45;;;24.50;86.90;;;;;;5028068;28;20302;-84
2022/06/09 11:51:42;;;;;;;1.70;1.60;;;24.30;85.80;;;;;;5026125;28;21018;-83
2022/06/09 11:54:37;;;;;;;1.48;1.38;;;24.00;85.60;;;;;;5025955;28;20220;-84
2022/06/09 11:57:25;;;;;;;3.47;1.90;;;23.90;84.70;;;;;;5026069;28;20316;-84
2022/06/09 11:59:55;;;;;;;1.58;1.48;;;23.60;84.30;;;;;;5027918;28;20220;-84
2022/06/09 12:02:58;;;;;;;1.80;1.70;;;23.40;86.00;;;;;;5026137;28;20317;-84
2022/06/09 12:05:29;;;;;;;1.98;1.88;;;23.40;87.10;;;;;;5019471;28;20255;-84
2022/06/09 12:08:21;;;;;;;2.40;2.20;;;23.50;86.80;;;;;;5026352;28;20233;-83
2022/06/09 12:11:05;;;;;;;2.08;1.90;;;23.50;86.50;;;;;;5007849;28;20234;-83
2022/06/09 12:13:46;;;;;;;2.00;1.73;;;23.60;86.90;;;;;;5026405;28;20227;-83
2022/06/09 12:16:26;;;;;;;2.40;2.13;;;23.70;86.70;;;;;;5026183;28;20326;-82
2022/06/09 12:19:15;;;;;;;2.20;2.00;;;23.70;86.10;;;;;;5026228;28;20893;-83
2022/06/09 12:21:44;;;;;;;2.60;1.65;;;23.80;85.90;;;;;;5027759;28;20233;-83
2022/06/09 12:24:26;;;;;;;1.88;1.55;;;23.70;86.00;;;;;;5026593;28;20312;-83
2022/06/09 12:26:56;;;;;;;3.83;2.47;;;23.70;85.50;;;;;;5025830;28;20235;-83
2022/06/09 12:30:11;;;;;;;2.30;2.10;;;23.60;84.80;;;;;;5018646;28;20312;-83
2022/06/09 12:32:49;;;;;;;2.65;2.45;;;23.50;85.10;;;;;;4963168;28;20238;-83
2022/06/09 12:35:28;;;;;;;2.50;1.98;;;23.50;85.30;;;;;;5020628;28;20722;-83
2022/06/09 12:38:03;;;;;;;4.63;2.50;;;23.40;85.30;;;;;;5024011;28;20221;-83
2022/06/09 12:40:38;;;;;;;4.30;2.80;;;23.40;85.00;;;;;;5024890;28;20228;-82
2022/06/09 12:43:08;;;;;;;2.72;2.13;;;23.30;85.40;;;;;;5025287;28;20440;-83
2022/06/09 12:45:38;;;;;;;2.35;2.15;;;23.30;85.20;;;;;;5025789;28;20290;-83
2022/06/09 12:48:11;;;;;;;2.20;2.00;;;23.40;86.00;;;;;;5025080;28;20307;-83
2022/06/09 12:50:42;;;;;;;3.08;2.10;;;23.40;85.80;;;;;;5025077;28;20252;-83
2022/06/09 12:53:18;;;;;;;1.90;1.70;;;23.50;86.10;;;;;;5026117;28;20221;-83
2022/06/09 12:55:53;;;;;;;2.08;1.77;;;23.60;84.40;;;;;;5025849;28;20237;-84
2022/06/09 12:58:23;;;;;;;2.58;1.52;;;23.70;83.60;;;;;;5025041;28;20235;-84
2022/06/09 13:00:54;;;;;;;1.42;1.33;;;23.80;84.10;;;;;;5027647;28;20220;-83
2022/06/09 13:03:24;;;;;;;1.73;1.60;;;24.00;84.60;;;;;;5022127;28;20237;-83
2022/06/09 13:05:52;;;;;;;1.85;1.52;;;24.20;83.30;;;;;;5044361;28;20340;-83
2022/06/09 13:08:21;;;;;;;1.83;1.70;;;24.40;82.80;;;;;;5025227;28;20307;-83
2022/06/09 13:10:59;;;;;;;2.28;2.03;;;24.40;82.40;;;;;;5024177;28;21655;-82
2022/06/09 13:13:30;;;;;;;2.25;2.00;;;24.30;81.80;;;;;;5022284;28;20221;-83
2022/06/09 13:16:00;;;;;;;1.80;1.70;;;24.10;81.70;;;;;;5026835;28;20225;-83
2022/06/09 13:18:30;;;;;;;2.47;2.00;;;24.00;82.30;;;;;;5028349;28;20232;-83
2022/06/09 13:21:06;;;;;;;1.98;1.65;;;23.80;82.50;;;;;;5028208;28;20221;-83
2022/06/09 13:23:34;;;;;;;1.70;1.60;;;23.90;83.20;;;;;;5025438;28;20221;-82
2022/06/09 13:26:03;;;;;;;2.25;1.60;;;24.00;83.00;;;;;;5018714;28;20232;-82
2022/06/09 13:28:35;;;;;;;1.80;1.38;;;24.10;82.80;;;;;;5021274;28;20253;-82